Time;durP1;ratioP1;P1;durP2;ratioP2;P2;SDS_P1;SDS_P2;PMS_P1;PMS_P2;Temp;Humidity;BMP_temperature;BMP_pressure;BME280_temperature;BME280_humidity;BME280_pressure;Samples;Min_cycle;Max_cycle;Signal;HPM_P1;HPM_P2
2023/06/23 00:00:25;;;;;;;18.00;10.18;;;17.00;99.90;;;;;;4993341;28;20519;-66
2023/06/23 00:02:51;;;;;;;20.52;11.82;;;17.00;99.90;;;;;;4975493;28;20479;-66
2023/06/23 00:05:16;;;;;;;15.27;11.70;;;16.90;99.90;;;;;;4969893;28;20046;-66
2023/06/23 00:07:42;;;;;;;19.20;11.75;;;17.00;99.90;;;;;;4993083;28;20038;-66
2023/06/23 00:10:10;;;;;;;20.25;11.32;;;17.00;99.90;;;;;;4975460;28;20085;-66
2023/06/23 00:12:41;;;;;;;20.40;11.68;;;17.00;99.90;;;;;;4989573;28;20081;-66
2023/06/23 00:15:14;;;;;;;17.52;10.77;;;17.00;99.90;;;;;;4990723;28;20121;-66
2023/06/23 00:17:43;;;;;;;17.77;10.82;;;17.00;99.90;;;;;;5033808;23;20049;-67
2023/06/23 00:20:10;;;;;;;12.68;9.07;;;17.00;99.90;;;;;;4996057;28;20056;-66
2023/06/23 00:22:36;;;;;;;16.95;11.27;;;17.00;99.90;;;;;;5007417;28;20064;-67
2023/06/23 00:25:03;;;;;;;18.23;11.73;;;17.00;99.90;;;;;;5031859;28;20056;-67
2023/06/23 00:27:28;;;;;;;19.10;11.55;;;17.00;99.90;;;;;;5023330;28;20100;-66
2023/06/23 00:29:54;;;;;;;13.27;8.40;;;17.00;99.90;;;;;;5025311;28;20037;-66
2023/06/23 00:32:20;;;;;;;21.15;12.13;;;17.00;99.90;;;;;;5032200;28;20038;-66
2023/06/23 00:34:46;;;;;;;16.92;10.80;;;17.00;99.90;;;;;;5028970;28;20086;-66
2023/06/23 00:37:11;;;;;;;18.55;11.98;;;16.90;99.90;;;;;;5020537;28;20512;-66
2023/06/23 00:39:37;;;;;;;20.05;12.35;;;17.00;99.90;;;;;;5031105;28;20037;-66
2023/06/23 00:42:05;;;;;;;18.65;11.43;;;16.90;99.90;;;;;;5032514;28;20041;-66
2023/06/23 00:44:33;;;;;;;19.33;11.77;;;16.90;99.90;;;;;;5026625;28;20045;-66
2023/06/23 00:46:59;;;;;;;15.18;10.68;;;16.90;99.90;;;;;;5027212;28;20041;-66
2023/06/23 00:49:25;;;;;;;17.95;11.60;;;16.90;99.90;;;;;;5021450;28;20407;-66
2023/06/23 00:51:52;;;;;;;16.58;11.68;;;16.90;99.90;;;;;;5028956;28;20046;-67
2023/06/23 00:54:18;;;;;;;18.10;11.85;;;16.90;99.90;;;;;;5019208;28;20052;-66
2023/06/23 00:56:44;;;;;;;18.15;10.02;;;16.90;99.90;;;;;;5025912;28;20038;-66
2023/06/23 00:59:10;;;;;;;22.50;12.68;;;16.90;99.90;;;;;;5031096;28;20041;-66
2023/06/23 01:01:36;;;;;;;20.05;12.63;;;16.90;99.90;;;;;;5031780;28;20033;-66
2023/06/23 01:04:02;;;;;;;20.52;13.10;;;16.90;99.90;;;;;;5022181;28;20509;-67
2023/06/23 01:06:37;;;;;;;17.58;11.95;;;16.90;99.90;;;;;;5030116;28;20110;-67
2023/06/23 01:09:23;;;;;;;23.05;13.27;;;16.90;99.90;;;;;;5027250;28;20064;-66
2023/06/23 01:12:01;;;;;;;22.45;13.77;;;16.90;99.90;;;;;;5026313;28;20048;-66
2023/06/23 01:14:37;;;;;;;25.23;14.32;;;16.90;99.90;;;;;;5023444;28;20037;-66
2023/06/23 01:17:12;;;;;;;22.48;14.35;;;16.90;99.90;;;;;;5029821;28;20503;-68
2023/06/23 01:19:51;;;;;;;23.23;14.63;;;16.90;99.90;;;;;;5012350;28;20076;-66
2023/06/23 01:22:48;;;;;;;24.23;14.98;;;16.90;99.90;;;;;;5029335;28;20455;-66
2023/06/23 01:25:37;;;;;;;23.58;11.65;;;16.90;99.90;;;;;;5029195;28;20099;-66
2023/06/23 01:28:18;;;;;;;19.83;12.60;;;16.90;99.90;;;;;;5016737;28;20029;-66
2023/06/23 01:30:47;;;;;;;20.52;12.63;;;16.90;99.90;;;;;;5007752;28;20037;-66
2023/06/23 01:33:19;;;;;;;19.83;12.70;;;16.90;99.90;;;;;;5013583;28;20057;-66
2023/06/23 01:36:03;;;;;;;23.70;13.25;;;16.90;99.90;;;;;;5017622;28;20095;-66
2023/06/23 01:38:58;;;;;;;24.08;13.77;;;16.90;99.90;;;;;;5023339;28;20547;-66
2023/06/23 01:41:28;;;;;;;19.92;11.43;;;16.90;99.90;;;;;;5028358;28;20049;-66
2023/06/23 01:43:56;;;;;;;22.23;12.77;;;16.90;99.90;;;;;;5022545;28;20161;-66
2023/06/23 01:46:27;;;;;;;18.65;13.02;;;16.90;99.90;;;;;;5028287;28;20116;-66
2023/06/23 01:48:57;;;;;;;23.77;14.47;;;16.90;99.90;;;;;;5030997;28;20100;-67
2023/06/23 01:51:26;;;;;;;22.73;13.88;;;16.90;99.90;;;;;;5031460;28;20045;-67
2023/06/23 01:53:54;;;;;;;21.13;13.18;;;16.90;99.90;;;;;;5019964;28;20037;-66
2023/06/23 01:56:22;;;;;;;25.83;13.70;;;16.90;99.90;;;;;;5004745;28;20688;-66
2023/06/23 01:58:50;;;;;;;21.75;13.90;;;16.90;99.90;;;;;;5033980;28;20052;-66
2023/06/23 02:01:16;;;;;;;20.05;12.98;;;16.80;99.90;;;;;;5023116;28;20053;-66
2023/06/23 02:03:42;;;;;;;22.88;14.23;;;16.80;99.90;;;;;;5031051;28;20029;-66
2023/06/23 02:06:10;;;;;;;23.27;14.57;;;16.80;99.90;;;;;;5034957;28;20562;-66
2023/06/23 02:08:36;;;;;;;24.38;14.63;;;16.80;99.90;;;;;;5025545;28;20107;-66
2023/06/23 02:11:03;;;;;;;26.58;15.20;;;16.80;99.90;;;;;;5030603;28;20029;-66
2023/06/23 02:13:30;;;;;;;20.98;15.20;;;16.80;99.90;;;;;;5035258;28;20041;-66
2023/06/23 02:15:57;;;;;;;26.75;16.83;;;16.80;99.90;;;;;;5032287;28;20130;-66
2023/06/23 02:18:24;;;;;;;24.88;16.38;;;16.80;99.90;;;;;;5015817;28;20431;-67
2023/06/23 02:20:53;;;;;;;25.80;15.95;;;16.80;99.90;;;;;;5029879;28;20543;-66
2023/06/23 02:23:20;;;;;;;23.92;15.30;;;16.70;99.90;;;;;;5034540;28;20487;-66
2023/06/23 02:25:47;;;;;;;22.63;15.23;;;16.70;99.90;;;;;;5032453;28;20041;-67
2023/06/23 02:28:13;;;;;;;26.80;16.38;;;16.70;99.90;;;;;;5023734;28;20077;-66
2023/06/23 02:30:43;;;;;;;25.08;15.32;;;16.70;99.90;;;;;;5034617;28;20076;-66
2023/06/23 02:33:08;;;;;;;25.13;15.55;;;16.70;99.90;;;;;;5030020;28;20076;-66
2023/06/23 02:35:34;;;;;;;22.30;14.57;;;16.70;99.90;;;;;;5008950;28;20042;-67
2023/06/23 02:38:08;;;;;;;29.17;16.27;;;16.70;99.90;;;;;;5033749;28;20065;-66
2023/06/23 02:40:36;;;;;;;23.10;15.18;;;16.60;99.90;;;;;;5014732;28;20120;-66
2023/06/23 02:43:17;;;;;;;22.67;14.85;;;16.60;99.90;;;;;;5033213;28;20069;-66
2023/06/23 02:45:43;;;;;;;;;;;16.60;99.90;;;;;;5034618;28;20037;-66
2023/06/23 02:48:15;;;;;;;20.05;14.68;;;16.60;99.90;;;;;;5034137;28;19916;-66
2023/06/23 02:50:43;;;;;;;25.92;14.30;;;16.50;99.90;;;;;;5030121;28;20029;-66
2023/06/23 02:53:13;;;;;;;25.15;14.40;;;16.50;99.90;;;;;;5029952;28;20042;-65
2023/06/23 02:55:42;;;;;;;22.23;15.02;;;16.50;99.90;;;;;;5033597;28;20041;-66
2023/06/23 02:58:11;;;;;;;26.95;15.20;;;16.50;99.90;;;;;;5031870;28;20083;-67
2023/06/23 03:00:37;;;;;;;21.95;14.40;;;16.50;99.90;;;;;;5004165;28;20649;-66
2023/06/23 03:03:07;;;;;;;23.60;15.73;;;16.50;99.90;;;;;;5013092;28;20075;-67
2023/06/23 03:05:33;;;;;;;24.30;14.02;;;16.50;99.90;;;;;;5016791;28;20056;-66
2023/06/23 03:08:00;;;;;;;21.05;14.48;;;16.50;99.90;;;;;;5022463;28;20404;-66
2023/06/23 03:10:28;;;;;;;23.00;14.05;;;16.40;99.90;;;;;;5031751;28;20079;-66
2023/06/23 03:12:54;;;;;;;22.63;14.07;;;16.50;99.90;;;;;;5033696;28;20041;-67
2023/06/23 03:15:20;;;;;;;20.85;14.77;;;16.50;99.90;;;;;;5028315;28;20037;-66
2023/06/23 03:17:48;;;;;;;22.77;14.70;;;16.50;99.90;;;;;;5030462;28;20451;-66
2023/06/23 03:20:28;;;;;;;23.55;15.15;;;16.50;99.90;;;;;;5033795;28;20043;-66
2023/06/23 03:23:01;;;;;;;23.52;15.10;;;16.40;99.90;;;;;;5028230;28;20055;-66
2023/06/23 03:25:27;;;;;;;25.45;16.08;;;16.40;99.90;;;;;;5026321;28;20036;-66
2023/06/23 03:27:59;;;;;;;25.67;14.88;;;16.40;99.90;;;;;;5032949;28;20029;-66
2023/06/23 03:30:42;;;;;;;28.13;16.13;;;16.40;99.90;;;;;;5015772;28;20563;-66
2023/06/23 03:33:16;;;;;;;24.60;16.00;;;16.40;99.90;;;;;;5010586;28;20045;-66
2023/06/23 03:35:44;;;;;;;27.65;16.33;;;16.40;99.90;;;;;;5024519;28;20033;-66
2023/06/23 03:38:14;;;;;;;27.15;17.10;;;16.40;99.90;;;;;;5002678;28;20045;-66
2023/06/23 03:40:45;;;;;;;27.73;16.90;;;16.40;99.90;;;;;;5026159;28;20528;-67
2023/06/23 03:43:47;;;;;;;24.63;16.10;;;16.40;99.90;;;;;;5026956;28;20037;-66
2023/06/23 03:46:34;;;;;;;25.33;16.17;;;16.40;99.90;;;;;;5018147;28;20049;-66
2023/06/23 03:49:02;;;;;;;24.25;15.32;;;16.40;99.90;;;;;;5017217;28;20049;-66
2023/06/23 03:51:29;;;;;;;25.50;15.75;;;16.40;99.90;;;;;;5016178;28;20041;-66
2023/06/23 03:53:59;;;;;;;26.23;15.80;;;16.50;99.90;;;;;;5022951;28;20044;-66
2023/06/23 03:56:28;;;;;;;20.67;14.88;;;16.50;99.90;;;;;;5028981;28;20038;-66
2023/06/23 03:58:55;;;;;;;28.13;16.42;;;16.50;99.90;;;;;;5012985;28;20099;-66
2023/06/23 04:01:22;;;;;;;26.60;15.77;;;16.50;99.90;;;;;;5020027;28;20057;-67
2023/06/23 04:03:50;;;;;;;23.08;15.77;;;16.50;99.90;;;;;;5032643;28;20041;-66
2023/06/23 04:06:18;;;;;;;27.80;15.95;;;16.50;99.90;;;;;;5033164;28;20068;-66
2023/06/23 04:08:46;;;;;;;25.90;16.00;;;16.50;99.90;;;;;;5002374;28;20442;-66
2023/06/23 04:11:13;;;;;;;27.88;15.80;;;16.50;99.90;;;;;;5030127;28;20041;-66
2023/06/23 04:13:40;;;;;;;23.65;14.13;;;16.50;99.90;;;;;;5028527;28;20065;-65
2023/06/23 04:16:07;;;;;;;25.35;15.95;;;16.50;99.90;;;;;;5030659;28;20052;-66
2023/06/23 04:18:37;;;;;;;29.40;15.77;;;16.40;99.90;;;;;;5032575;28;20045;-66
2023/06/23 04:21:04;;;;;;;26.05;16.80;;;16.40;99.90;;;;;;5014395;28;20045;-66
2023/06/23 04:23:31;;;;;;;24.00;14.93;;;16.40;99.90;;;;;;5027536;28;20396;-67
2023/06/23 04:25:59;;;;;;;23.70;14.95;;;16.40;99.90;;;;;;5027624;28;20499;-66
2023/06/23 04:28:25;;;;;;;29.00;15.80;;;16.40;99.90;;;;;;5027069;28;20060;-66
2023/06/23 04:30:52;;;;;;;24.25;16.05;;;16.40;99.90;;;;;;5022418;28;20034;-66
2023/06/23 04:33:18;;;;;;;26.15;16.40;;;16.40;99.90;;;;;;5026464;28;20042;-66
2023/06/23 04:35:47;;;;;;;25.10;16.60;;;16.40;99.90;;;;;;5032001;28;20052;-67
2023/06/23 04:38:14;;;;;;;25.90;15.75;;;16.40;99.90;;;;;;5009879;28;20048;-66
2023/06/23 04:40:56;;;;;;;25.15;16.65;;;16.40;99.90;;;;;;5002427;28;20073;-66
2023/06/23 04:43:31;;;;;;;21.30;15.25;;;16.50;99.90;;;;;;5031556;28;20033;-67
2023/06/23 04:46:14;;;;;;;22.15;14.70;;;16.50;99.90;;;;;;5032254;28;21708;-66
2023/06/23 04:48:49;;;;;;;24.13;15.85;;;16.50;99.90;;;;;;5014082;28;20124;-66
2023/06/23 04:51:17;;;;;;;21.40;15.13;;;16.50;99.90;;;;;;5015910;28;20152;-67
2023/06/23 04:53:47;;;;;;;22.10;15.82;;;16.40;99.90;;;;;;5016985;28;20049;-66
2023/06/23 04:56:16;;;;;;;25.60;15.57;;;16.50;99.90;;;;;;5032729;28;20033;-65
2023/06/23 04:58:46;;;;;;;23.80;15.02;;;16.50;99.90;;;;;;5004126;28;20496;-66
2023/06/23 05:01:12;;;;;;;24.33;14.60;;;16.50;99.90;;;;;;5008285;28;20050;-66
2023/06/23 05:03:39;;;;;;;24.23;15.55;;;16.60;99.90;;;;;;4992861;28;20045;-66
2023/06/23 05:06:08;;;;;;;23.23;15.13;;;16.60;99.90;;;;;;5020145;28;20041;-66
2023/06/23 05:08:36;;;;;;;26.52;15.45;;;16.60;99.90;;;;;;4994399;28;20118;-67
2023/06/23 05:11:05;;;;;;;25.40;14.98;;;16.60;99.90;;;;;;5023939;23;20041;-68
2023/06/23 05:13:33;;;;;;;21.80;14.80;;;16.60;99.90;;;;;;4997269;28;20424;-66
2023/06/23 05:16:02;;;;;;;23.65;14.10;;;16.60;99.90;;;;;;5019569;28;20065;-65
2023/06/23 05:18:29;;;;;;;22.58;14.27;;;16.60;99.90;;;;;;5022105;28;20038;-65
2023/06/23 05:20:58;;;;;;;29.60;14.90;;;16.60;99.90;;;;;;5002778;28;20172;-65
2023/06/23 05:23:26;;;;;;;23.30;14.18;;;16.70;99.90;;;;;;5026964;28;20037;-66
2023/06/23 05:25:52;;;;;;;25.88;14.52;;;16.70;99.90;;;;;;5030546;28;20056;-65
2023/06/23 05:28:20;;;;;;;23.40;15.02;;;16.70;99.90;;;;;;5031392;28;20041;-66
2023/06/23 05:30:46;;;;;;;24.38;14.52;;;16.70;99.90;;;;;;5005761;28;20049;-66
2023/06/23 05:33:14;;;;;;;23.75;14.95;;;16.80;99.90;;;;;;5023548;28;20033;-66
2023/06/23 05:35:42;;;;;;;22.92;15.15;;;16.90;99.90;;;;;;5029297;28;20385;-66
2023/06/23 05:38:10;;;;;;;21.70;15.45;;;16.90;99.90;;;;;;4997293;28;20033;-66
2023/06/23 05:40:36;;;;;;;21.25;15.52;;;16.90;99.90;;;;;;5012493;28;20056;-67
2023/06/23 05:43:02;;;;;;;23.25;15.52;;;16.90;99.90;;;;;;5027187;28;20479;-66
2023/06/23 05:45:28;;;;;;;22.45;14.48;;;16.90;99.90;;;;;;5031248;28;20049;-67
2023/06/23 05:48:29;;;;;;;21.75;14.63;;;16.90;99.90;;;;;;5020052;28;20037;-67
2023/06/23 05:50:57;;;;;;;23.48;14.48;;;16.80;99.90;;;;;;5026877;28;20092;-66
2023/06/23 05:53:25;;;;;;;22.15;14.45;;;16.80;99.90;;;;;;5025430;28;20041;-67
2023/06/23 05:56:28;;;;;;;20.90;14.48;;;16.80;99.90;;;;;;5028549;28;20048;-67
2023/06/23 05:58:58;;;;;;;27.83;15.48;;;16.80;99.90;;;;;;5022370;28;20487;-67
2023/06/23 06:01:28;;;;;;;22.73;14.73;;;16.80;99.90;;;;;;5009414;28;20045;-67
2023/06/23 06:04:01;;;;;;;24.27;14.57;;;16.80;99.90;;;;;;5030840;28;20407;-67
2023/06/23 06:06:28;;;;;;;27.00;15.18;;;16.80;99.90;;;;;;5011505;28;20049;-67
2023/06/23 06:08:57;;;;;;;23.80;15.68;;;16.80;99.90;;;;;;5015209;28;20040;-67
2023/06/23 06:11:23;;;;;;;22.17;15.20;;;16.80;99.90;;;;;;5017329;28;20038;-67
2023/06/23 06:13:51;;;;;;;24.25;15.13;;;16.80;99.90;;;;;;5017569;28;20084;-67
2023/06/23 06:16:18;;;;;;;22.65;15.02;;;16.80;99.90;;;;;;5024322;28;20048;-70
2023/06/23 06:18:45;;;;;;;23.88;14.70;;;16.80;99.90;;;;;;5012098;28;20108;-70
2023/06/23 06:21:13;;;;;;;21.52;14.98;;;16.80;99.90;;;;;;5030289;28;20041;-69
2023/06/23 06:23:41;;;;;;;23.95;15.07;;;16.80;99.90;;;;;;5018531;28;20041;-69
2023/06/23 06:26:09;;;;;;;22.05;15.00;;;16.80;99.90;;;;;;5028070;28;20033;-69
2023/06/23 06:28:36;;;;;;;27.38;15.57;;;16.80;99.90;;;;;;5001810;28;20049;-69
2023/06/23 06:31:03;;;;;;;23.92;14.25;;;16.80;99.90;;;;;;5038585;28;20072;-68
2023/06/23 06:33:30;;;;;;;23.30;15.27;;;16.80;99.90;;;;;;5019915;28;20030;-69
2023/06/23 06:35:58;;;;;;;21.85;14.43;;;16.90;99.90;;;;;;5028643;28;20041;-69
2023/06/23 06:38:24;;;;;;;24.05;15.02;;;17.10;99.90;;;;;;5011731;28;20585;-68
2023/06/23 06:40:53;;;;;;;24.23;15.07;;;17.30;99.90;;;;;;5002366;28;20042;-69
2023/06/23 06:43:19;;;;;;;21.50;14.68;;;17.50;99.90;;;;;;5024613;28;20492;-69
2023/06/23 06:45:45;;;;;;;20.33;14.45;;;17.60;99.90;;;;;;5031661;28;20126;-69
2023/06/23 06:48:12;;;;;;;20.13;14.45;;;17.70;99.90;;;;;;5033090;28;20034;-69
2023/06/23 06:50:38;;;;;;;20.92;14.20;;;17.80;99.90;;;;;;5029949;28;20399;-67
2023/06/23 06:53:04;;;;;;;20.90;13.75;;;18.00;99.90;;;;;;5021808;28;20048;-69
2023/06/23 06:55:31;;;;;;;17.80;11.90;;;18.10;99.90;;;;;;5029752;28;20030;-70
2023/06/23 06:57:57;;;;;;;19.02;11.90;;;18.10;99.90;;;;;;5007130;28;20116;-69
2023/06/23 07:00:25;;;;;;;17.90;11.43;;;18.30;99.90;;;;;;5023103;28;20045;-69
2023/06/23 07:02:52;;;;;;;16.33;10.85;;;18.40;99.90;;;;;;5030495;28;20041;-68
2023/06/23 07:05:19;;;;;;;17.35;10.95;;;18.50;99.90;;;;;;5036651;28;20033;-69
2023/06/23 07:07:46;;;;;;;14.73;10.30;;;18.60;99.90;;;;;;5012482;28;20045;-69
2023/06/23 07:10:12;;;;;;;18.50;10.60;;;18.60;99.90;;;;;;5028012;28;20084;-69
2023/06/23 07:12:37;;;;;;;14.73;9.43;;;18.80;99.90;;;;;;5032948;28;20045;-69
2023/06/23 07:15:03;;;;;;;15.20;8.85;;;18.80;99.90;;;;;;5032246;28;20029;-69
2023/06/23 07:17:29;;;;;;;12.95;8.35;;;18.90;99.90;;;;;;4988493;28;20103;-69
2023/06/23 07:19:54;;;;;;;15.27;9.63;;;18.90;99.90;;;;;;5012593;28;20049;-70
2023/06/23 07:22:20;;;;;;;14.70;9.38;;;19.00;99.90;;;;;;5036888;28;20041;-69
2023/06/23 07:24:46;;;;;;;14.77;9.80;;;19.10;99.90;;;;;;5030353;28;20484;-70
2023/06/23 07:27:14;;;;;;;12.23;8.18;;;19.20;99.90;;;;;;5032359;28;20469;-69
2023/06/23 07:29:40;;;;;;;15.32;8.55;;;19.30;99.90;;;;;;5015395;28;20084;-69
2023/06/23 07:32:07;;;;;;;11.88;7.75;;;19.40;99.90;;;;;;5025268;28;20080;-70
2023/06/23 07:34:33;;;;;;;13.40;8.30;;;19.40;99.90;;;;;;5017593;28;20543;-70
2023/06/23 07:36:58;;;;;;;12.57;8.55;;;19.50;99.90;;;;;;5015001;28;20125;-69
2023/06/23 07:39:24;;;;;;;10.20;7.28;;;19.50;99.90;;;;;;5032586;28;20045;-69
2023/06/23 07:41:50;;;;;;;13.40;8.32;;;19.60;99.90;;;;;;5012081;28;20037;-69
2023/06/23 07:44:15;;;;;;;9.55;6.93;;;19.70;99.90;;;;;;5020491;28;20470;-69
2023/06/23 07:46:41;;;;;;;13.23;7.07;;;19.70;99.90;;;;;;5041090;28;20045;-69
2023/06/23 07:49:06;;;;;;;12.40;8.50;;;19.80;99.90;;;;;;5032752;28;20044;-69
2023/06/23 07:51:32;;;;;;;10.88;7.40;;;19.90;99.90;;;;;;5016021;28;20037;-68
2023/06/23 07:53:58;;;;;;;9.93;7.70;;;20.00;99.90;;;;;;5016922;28;20033;-69
2023/06/23 07:56:23;;;;;;;10.27;7.40;;;20.10;99.90;;;;;;5021883;28;20034;-69
2023/06/23 07:58:49;;;;;;;11.38;7.32;;;20.10;99.90;;;;;;5031727;28;20395;-69
2023/06/23 08:01:15;;;;;;;10.40;6.93;;;20.20;99.90;;;;;;5016039;28;20408;-69
2023/06/23 08:03:47;;;;;;;10.40;7.47;;;20.20;99.90;;;;;;5017078;28;20079;-68
2023/06/23 08:06:13;;;;;;;10.82;7.65;;;20.30;99.90;;;;;;5027382;28;20052;-66
2023/06/23 08:08:40;;;;;;;14.77;6.88;;;20.40;99.90;;;;;;5018257;28;20033;-69
2023/06/23 08:11:06;;;;;;;10.35;7.35;;;20.50;99.90;;;;;;5039296;28;20491;-69
2023/06/23 08:13:31;;;;;;;9.75;6.28;;;20.50;99.90;;;;;;5005360;28;20042;-69
2023/06/23 08:15:57;;;;;;;14.38;6.78;;;20.60;99.90;;;;;;5029171;28;20041;-69
2023/06/23 08:18:22;;;;;;;10.10;7.55;;;20.60;99.90;;;;;;5031696;28;20037;-69
2023/06/23 08:20:49;;;;;;;9.40;6.93;;;20.70;99.90;;;;;;5009508;28;20056;-68
2023/06/23 08:23:15;;;;;;;13.30;8.50;;;20.70;99.90;;;;;;5026024;28;20087;-69
2023/06/23 08:25:41;;;;;;;12.57;9.23;;;20.80;99.90;;;;;;5028862;28;20427;-69
2023/06/23 08:28:06;;;;;;;13.10;9.05;;;20.90;99.90;;;;;;5048824;28;20458;-70
2023/06/23 08:30:32;;;;;;;12.48;9.05;;;21.00;99.90;;;;;;5052567;28;20038;-70
2023/06/23 08:32:58;;;;;;;16.75;8.80;;;21.00;99.90;;;;;;5045287;28;20045;-69
2023/06/23 08:35:23;;;;;;;17.02;8.88;;;21.10;99.90;;;;;;5005153;28;20387;-69
2023/06/23 08:37:49;;;;;;;12.98;9.07;;;21.10;99.90;;;;;;5031397;28;20037;-70
2023/06/23 08:40:15;;;;;;;13.70;9.40;;;21.10;99.90;;;;;;5024646;28;20045;-69
2023/06/23 08:42:41;;;;;;;13.85;9.48;;;21.20;99.90;;;;;;5013334;28;20053;-68
2023/06/23 08:45:08;;;;;;;12.93;8.82;;;21.20;99.90;;;;;;5040959;28;20048;-69
2023/06/23 08:47:41;;;;;;;12.85;8.35;;;21.30;99.90;;;;;;5025639;28;20328;-70
2023/06/23 08:50:08;;;;;;;11.05;7.85;;;21.40;99.90;;;;;;5027571;28;20048;-69
2023/06/23 08:52:35;;;;;;;12.18;7.80;;;21.40;99.90;;;;;;5026926;28;20506;-69
2023/06/23 08:55:02;;;;;;;10.10;7.10;;;21.50;99.90;;;;;;5046629;28;20029;-68
2023/06/23 08:57:28;;;;;;;9.68;7.05;;;21.50;99.90;;;;;;5004380;28;20113;-69
2023/06/23 08:59:55;;;;;;;8.00;6.63;;;21.60;99.90;;;;;;5013550;28;20130;-69
2023/06/23 09:02:21;;;;;;;8.48;5.72;;;21.70;99.90;;;;;;5014746;28;20060;-69
2023/06/23 09:04:47;;;;;;;10.63;6.47;;;21.80;99.90;;;;;;5026526;28;20113;-69
2023/06/23 09:07:13;;;;;;;7.70;6.35;;;21.80;99.90;;;;;;5043616;28;20065;-69
2023/06/23 09:09:40;;;;;;;8.77;6.72;;;21.90;99.90;;;;;;5030566;28;20369;-69
2023/06/23 09:12:07;;;;;;;7.20;5.72;;;21.90;99.90;;;;;;4999511;28;20435;-69
2023/06/23 09:14:36;;;;;;;10.00;5.68;;;22.00;99.90;;;;;;5022638;28;20038;-70
2023/06/23 09:17:02;;;;;;;11.20;6.10;;;22.10;99.90;;;;;;5024787;28;20115;-69
2023/06/23 09:19:31;;;;;;;7.70;5.95;;;22.20;99.90;;;;;;5029628;28;20029;-69
2023/06/23 09:21:57;;;;;;;7.35;5.03;;;22.20;99.90;;;;;;5030730;28;20041;-68
2023/06/23 09:24:23;;;;;;;7.43;5.53;;;22.20;99.90;;;;;;5018503;28;20037;-68
2023/06/23 09:26:54;;;;;;;6.95;5.00;;;22.20;99.90;;;;;;5015976;28;20028;-70
2023/06/23 09:29:24;;;;;;;7.50;5.57;;;22.30;99.90;;;;;;5013753;28;20091;-69
2023/06/23 09:31:51;;;;;;;7.88;5.72;;;22.40;99.90;;;;;;5022512;28;20044;-70
2023/06/23 09:34:29;;;;;;;7.35;5.15;;;22.50;99.90;;;;;;5014599;28;20045;-68
2023/06/23 09:37:16;;;;;;;7.82;5.53;;;22.50;99.90;;;;;;5033607;28;20162;-70
2023/06/23 09:39:48;;;;;;;7.25;5.68;;;22.70;99.50;;;;;;5019825;28;20041;-68
2023/06/23 09:42:14;;;;;;;7.53;5.35;;;22.70;99.90;;;;;;5013306;28;20033;-70
2023/06/23 09:44:42;;;;;;;8.85;6.03;;;22.70;99.90;;;;;;5031042;28;20064;-69
2023/06/23 09:47:08;;;;;;;7.38;5.40;;;22.80;99.90;;;;;;5005854;28;20042;-69
2023/06/23 09:50:00;;;;;;;8.25;5.90;;;22.90;99.90;;;;;;5021627;28;20045;-70
2023/06/23 09:52:27;;;;;;;8.05;5.72;;;23.00;99.90;;;;;;5017188;28;20065;-70
2023/06/23 09:54:55;;;;;;;8.45;5.38;;;23.00;99.90;;;;;;5030740;28;20073;-69
2023/06/23 09:57:21;;;;;;;6.78;5.07;;;23.10;99.90;;;;;;5009471;28;20042;-69
2023/06/23 09:59:51;;;;;;;7.05;5.03;;;23.10;99.90;;;;;;5008360;28;20056;-69
2023/06/23 10:02:22;;;;;;;6.38;5.00;;;23.20;99.90;;;;;;5030981;28;20124;-69
2023/06/23 10:04:49;;;;;;;7.78;5.50;;;23.30;99.90;;;;;;5014928;28;20105;-70
2023/06/23 10:07:23;;;;;;;9.70;5.57;;;23.30;99.90;;;;;;5021956;28;20037;-69
2023/06/23 10:09:49;;;;;;;10.02;5.32;;;23.40;99.90;;;;;;5030140;28;20037;-69
2023/06/23 10:12:16;;;;;;;8.80;5.22;;;23.50;99.90;;;;;;5027164;28;20134;-69
2023/06/23 10:14:42;;;;;;;6.35;4.50;;;23.70;99.90;;;;;;5025205;28;20038;-69
2023/06/23 10:17:08;;;;;;;6.15;4.70;;;23.80;99.90;;;;;;4995715;28;20091;-66
2023/06/23 10:19:34;;;;;;;6.88;5.05;;;23.90;99.90;;;;;;5006867;28;20546;-69
2023/06/23 10:22:00;;;;;;;7.45;5.35;;;23.90;99.90;;;;;;4998894;28;20045;-66
2023/06/23 10:24:27;;;;;;;7.25;5.95;;;24.00;99.90;;;;;;5000674;28;20119;-69
2023/06/23 10:26:58;;;;;;;9.48;5.82;;;24.10;99.90;;;;;;5027626;28;20506;-66
2023/06/23 10:29:24;;;;;;;6.50;5.47;;;24.10;99.90;;;;;;5023020;28;20037;-70
2023/06/23 10:31:56;;;;;;;8.13;5.53;;;24.10;99.90;;;;;;5005130;28;20504;-67
2023/06/23 10:34:24;;;;;;;8.50;5.38;;;24.10;99.90;;;;;;5036896;28;20040;-69
2023/06/23 10:36:52;;;;;;;7.40;5.03;;;23.90;99.90;;;;;;5037607;28;20038;-69
2023/06/23 10:39:20;;;;;;;7.15;4.68;;;23.80;99.90;;;;;;4997321;28;20085;-69
2023/06/23 10:41:47;;;;;;;6.57;4.47;;;23.80;99.90;;;;;;5019822;28;20037;-69
2023/06/23 10:44:15;;;;;;;6.75;4.57;;;23.90;99.70;;;;;;4985486;28;20476;-70
2023/06/23 10:46:41;;;;;;;7.05;4.22;;;24.00;99.00;;;;;;5025715;28;20128;-70
2023/06/23 10:49:07;;;;;;;5.03;4.13;;;24.10;99.50;;;;;;5024731;28;20120;-70
2023/06/23 10:51:35;;;;;;;5.32;4.22;;;24.20;99.20;;;;;;5024958;28;20157;-69
2023/06/23 10:54:05;;;;;;;7.10;4.50;;;24.30;98.30;;;;;;4999226;28;20072;-70
2023/06/23 10:56:33;;;;;;;6.05;4.55;;;24.30;98.50;;;;;;5001411;28;20373;-69
2023/06/23 10:58:59;;;;;;;7.30;5.18;;;24.30;97.60;;;;;;5041048;28;20029;-69
2023/06/23 11:01:26;;;;;;;6.28;4.88;;;24.40;98.00;;;;;;5022161;28;20088;-69
2023/06/23 11:03:56;;;;;;;8.23;5.38;;;24.50;98.30;;;;;;5016046;28;20041;-69
2023/06/23 11:06:28;;;;;;;7.32;5.70;;;24.80;98.40;;;;;;5025199;28;20079;-69
2023/06/23 11:08:54;;;;;;;6.10;5.07;;;24.80;97.80;;;;;;5036680;28;20462;-67
2023/06/23 11:11:33;;;;;;;7.13;5.72;;;24.70;98.50;;;;;;5009619;28;20068;-68
2023/06/23 11:13:59;;;;;;;13.05;6.00;;;24.60;95.70;;;;;;5015821;28;20067;-69
2023/06/23 11:16:31;;;;;;;7.45;5.38;;;24.80;98.30;;;;;;5032253;28;20029;-69
2023/06/23 11:18:57;;;;;;;8.85;5.07;;;25.00;97.50;;;;;;5026942;28;22069;-68
2023/06/23 11:21:34;;;;;;;6.82;4.78;;;25.10;96.60;;;;;;5009121;28;20403;-69
2023/06/23 11:24:19;;;;;;;7.40;5.55;;;25.20;94.20;;;;;;5033199;28;20436;-69
2023/06/23 11:27:02;;;;;;;8.00;5.95;;;24.90;96.30;;;;;;5012568;28;20052;-69
2023/06/23 11:29:27;;;;;;;8.02;4.65;;;24.80;97.50;;;;;;5006307;28;20038;-69
2023/06/23 11:32:03;;;;;;;6.68;4.30;;;24.90;97.50;;;;;;5039099;28;20396;-69
2023/06/23 11:34:30;;;;;;;5.45;4.18;;;25.00;94.90;;;;;;5018929;28;20107;-69
2023/06/23 11:36:57;;;;;;;7.00;4.45;;;24.80;96.30;;;;;;5029941;28;20087;-69
2023/06/23 11:39:22;;;;;;;8.68;4.45;;;24.90;95.70;;;;;;5028612;28;20542;-70
2023/06/23 11:41:48;;;;;;;9.25;4.93;;;24.60;96.00;;;;;;5014867;28;20046;-69
2023/06/23 11:44:17;;;;;;;7.63;4.93;;;24.50;95.70;;;;;;5025026;28;20030;-70
2023/06/23 11:46:42;;;;;;;8.00;4.38;;;24.70;96.10;;;;;;5000742;28;20480;-70
2023/06/23 11:49:12;;;;;;;5.57;4.03;;;24.60;95.70;;;;;;5013219;28;20033;-69
2023/06/23 11:51:38;;;;;;;4.75;3.65;;;24.70;95.30;;;;;;5028807;28;20033;-68
2023/06/23 11:54:06;;;;;;;6.25;4.53;;;24.90;95.10;;;;;;5016153;28;20049;-69
2023/06/23 11:56:32;;;;;;;6.90;4.28;;;24.90;95.20;;;;;;5039181;28;20330;-70
2023/06/23 11:59:02;;;;;;;6.75;4.65;;;25.00;94.50;;;;;;5016870;28;20452;-69
2023/06/23 12:01:28;;;;;;;6.07;4.55;;;25.20;95.30;;;;;;5015569;28;20495;-69
2023/06/23 12:03:54;;;;;;;6.43;4.60;;;25.30;94.80;;;;;;5031711;28;20033;-70
2023/06/23 12:06:20;;;;;;;5.32;4.10;;;25.40;94.60;;;;;;5032616;28;20041;-69
2023/06/23 12:08:49;;;;;;;6.40;4.47;;;25.40;93.80;;;;;;5011850;28;20403;-68
2023/06/23 12:11:17;;;;;;;5.78;3.97;;;25.20;94.40;;;;;;5026338;28;20080;-69
2023/06/23 12:13:45;;;;;;;6.18;3.90;;;25.30;93.90;;;;;;5032158;28;20033;-70
2023/06/23 12:18:48;;;;;;;5.43;4.30;;;25.40;91.80;;;;;;4958792;28;20043;-70
2023/06/23 12:21:15;;;;;;;6.15;4.25;;;25.50;91.50;;;;;;4989481;28;20058;-70
2023/06/23 12:31:41;;;;;;;7.10;4.03;;;25.70;92.20;;;;;;5342523;23;20427;-71
2023/06/23 12:34:09;;;;;;;4.60;3.65;;;25.70;91.90;;;;;;4984327;28;20504;-71
2023/06/23 12:42:55;;;;;;;7.50;3.50;;;26.10;91.30;;;;;;5198991;23;20111;-69
2023/06/23 12:45:22;;;;;;;5.35;3.75;;;26.30;88.20;;;;;;5009819;28;20125;-69
2023/06/23 12:52:59;;;;;;;7.78;4.28;;;26.10;84.10;;;;;;6090230;23;20013;-71
2023/06/23 12:58:22;;;;;;;5.82;4.00;;;26.00;75.50;;;;;;5252394;23;20531;-71
2023/06/23 13:00:48;;;;;;;5.65;3.70;;;26.00;81.90;;;;;;5023155;28;20033;-71
2023/06/23 13:03:14;;;;;;;8.57;3.90;;;26.10;81.60;;;;;;5028886;28;20041;-71
2023/06/23 13:05:41;;;;;;;6.75;3.75;;;26.10;80.10;;;;;;5038056;28;20120;-71
2023/06/23 13:08:08;;;;;;;5.20;3.83;;;26.20;78.90;;;;;;5007606;28;20120;-71